Blackwell, Wisconsin
Current Conditions -  °F | °C
As of 10:54 PM on Wednesday 22 Oct 2014 (Local Time) from KIMT Reporting Station
Haze Haze  
Wind Chill: 32°   Ceiling: 400
Heat Index: 38°   Visibility: 5mi
Dew Point: 37°   Wind: 8mph
Humidity: 97%   Direction: 160°SSE
Pressure: 30.21"   Gusts: NA
Location:  45.5665°N, 88.6366°W
Report Text: KIMT 230354Z AUTO 16007KT 5SM BR OVC004 03/03 A3021 RMK AO2 CIG 002V005 SLP243 T00330028
Loading
Personal Weather Stations






























Interactive Weather Map
Tropical Storm Tracking
New forecast layout! Learn more

10-Day Weather Forecast

Advertisements
Track Severe Weather on mobile